Mostein — E5U3129 — position and weather

sailwx.info

Track history (hours):
 
Tides and Currents Weather Stations Pressure Air Temp Water Temp Dewpoint Dewpoint Depression Visibility Wind Speed Wind Dir Waves Ship Positions

Mostein

Last reported at 2018-Jul-15 17:21 UTC. Time now 2018-Jul-16 04:32 UTC.
Position N 43°37' W 006°00'.

Length 90 m; draft 6.1 m.

Type: Cargo ship. MMSI: 518100188.

Date/timePositionNaut miles runAvg speedWind from/ knotsBaromVisibWave heightAir tempDewpointWater temp
2018-Jul-15 17:21N 43°37' W 006°00'322 8.0
2018-Jul-14 01:07N 39°06' W 009°50'110.0
2018-Jul-14 00:59N 39°04' W 009°50'510.0
2018-Jul-14 00:30N 38°60' W 009°50'610.4
2018-Jul-13 23:58N 38°54' W 009°51'510.6
2018-Jul-13 23:30N 38°49' W 009°51'610.4
2018-Jul-13 22:56N 38°43' W 009°50'410.1
2018-Jul-13 22:30N 38°39' W 009°50'5 9.8
2018-Jul-13 22:00N 38°34' W 009°48'5 9.9
2018-Jul-13 21:29N 38°29' W 009°46'47 9.6
2018-Jul-13 16:34N 37°43' W 009°33'1 9.1
2018-Jul-13 16:30N 37°43' W 009°33'83 7.9
2018-Jul-13 05:58N 36°44' W 008°20'5 9.9
2018-Jul-13 05:30N 36°44' W 008°14'  
2018-Jul-09 23:45N 35°58' W 005°37'2 8.2
2018-Jul-09 23:30N 35°59' W 005°34'9 7.5
2018-Jul-09 22:17N 36°01' W 005°23'2 7.0
2018-Jul-09 21:59N 36°02' W 005°21'389 8.8
2018-Jul-08 01:39N 37°04' E 002°37'1 8.8
2018-Jul-08 01:30N 37°04' E 002°38'4 8.7
2018-Jul-08 00:59N 37°05' E 002°44'4 8.8
2018-Jul-08 00:30N 37°06' E 002°49'32 9.2
2018-Jul-07 21:01N 37°10' E 003°29'0 9.3
2018-Jul-07 21:00N 37°10' E 003°29'5 9.6
2018-Jul-07 20:28N 37°11' E 003°36'8 9.6
2018-Jul-07 19:35N 37°12' E 003°46'1 9.5
2018-Jul-07 19:30N 37°12' E 003°47'5 9.5
2018-Jul-07 19:00N 37°13' E 003°53'  
Track history (hours):
 
Tides and Currents Weather Stations Pressure Air Temp Water Temp Dewpoint Dewpoint Depression Visibility Wind Speed Wind Dir Waves Ship Positions

Mostein

Last reported at 2018-Jul-15 17:21 UTC. Time now 2018-Jul-16 04:32 UTC.
Position N 43°37' W 006°00'.

Length 90 m; draft 6.1 m.

Type: Cargo ship. MMSI: 518100188.

Date/timePositionNaut miles runAvg speedWind from/ knotsBaromVisibWave heightAir tempDewpointWater temp
2018-Jul-15 17:21N 43°37' W 006°00'322 8.0
2018-Jul-14 01:07N 39°06' W 009°50'110.0
2018-Jul-14 00:59N 39°04' W 009°50'510.0
2018-Jul-14 00:30N 38°60' W 009°50'610.4
2018-Jul-13 23:58N 38°54' W 009°51'510.6
2018-Jul-13 23:30N 38°49' W 009°51'610.4
2018-Jul-13 22:56N 38°43' W 009°50'410.1
2018-Jul-13 22:30N 38°39' W 009°50'5 9.8
2018-Jul-13 22:00N 38°34' W 009°48'5 9.9
2018-Jul-13 21:29N 38°29' W 009°46'47 9.6
2018-Jul-13 16:34N 37°43' W 009°33'1 9.1
2018-Jul-13 16:30N 37°43' W 009°33'83 7.9
2018-Jul-13 05:58N 36°44' W 008°20'5 9.9
2018-Jul-13 05:30N 36°44' W 008°14'  
2018-Jul-09 23:45N 35°58' W 005°37'2 8.2
2018-Jul-09 23:30N 35°59' W 005°34'9 7.5
2018-Jul-09 22:17N 36°01' W 005°23'2 7.0
2018-Jul-09 21:59N 36°02' W 005°21'389 8.8
2018-Jul-08 01:39N 37°04' E 002°37'1 8.8
2018-Jul-08 01:30N 37°04' E 002°38'4 8.7
2018-Jul-08 00:59N 37°05' E 002°44'4 8.8
2018-Jul-08 00:30N 37°06' E 002°49'32 9.2
2018-Jul-07 21:01N 37°10' E 003°29'0 9.3
2018-Jul-07 21:00N 37°10' E 003°29'5 9.6
2018-Jul-07 20:28N 37°11' E 003°36'8 9.6
2018-Jul-07 19:35N 37°12' E 003°46'1 9.5
2018-Jul-07 19:30N 37°12' E 003°47'5 9.5
2018-Jul-07 19:00N 37°13' E 003°53'  

Dump ship's entire track history